createdAt,value
2022-11-03T00:02:26.528Z,12.30
2022-11-03T00:05:02.704Z,12.30
2022-11-03T00:07:30.006Z,12.30
2022-11-03T00:10:07.476Z,12.30
2022-11-03T00:12:44.042Z,12.30
2022-11-03T00:15:13.441Z,12.30
2022-11-03T00:17:43.897Z,12.30
2022-11-03T00:20:12.293Z,12.20
2022-11-03T00:22:39.227Z,12.30
2022-11-03T00:25:08.222Z,12.30
2022-11-03T00:27:38.713Z,12.20
2022-11-03T00:30:17.761Z,12.30
2022-11-03T00:32:46.033Z,12.30
2022-11-03T00:35:22.962Z,12.30
2022-11-03T00:37:52.258Z,12.30
2022-11-03T00:40:20.343Z,12.40
2022-11-03T00:42:52.187Z,12.30
2022-11-03T00:45:22.600Z,12.30
2022-11-03T00:48:09.349Z,12.40
2022-11-03T00:50:40.055Z,12.30
2022-11-03T00:53:15.932Z,12.40
2022-11-03T00:55:59.149Z,12.40
2022-11-03T00:58:28.743Z,12.40
2022-11-03T01:01:06.574Z,12.50
2022-11-03T01:04:37.577Z,12.40
2022-11-03T01:07:07.030Z,12.40
2022-11-03T01:09:41.570Z,12.40
2022-11-03T01:12:21.389Z,12.50
2022-11-03T01:14:54.183Z,12.50
2022-11-03T01:17:28.608Z,12.60
2022-11-03T01:19:56.797Z,12.60
2022-11-03T01:22:29.608Z,12.60
2022-11-03T01:25:05.036Z,12.60
2022-11-03T01:27:39.139Z,12.50
2022-11-03T01:30:08.053Z,12.50
2022-11-03T01:32:38.653Z,12.50
2022-11-03T01:35:15.413Z,12.50
2022-11-03T01:37:54.416Z,12.50
2022-11-03T01:40:25.237Z,12.40
2022-11-03T01:42:54.917Z,12.50
2022-11-03T01:45:25.107Z,12.50
2022-11-03T01:47:55.004Z,12.50
2022-11-03T01:50:26.235Z,12.60
2022-11-03T01:53:03.143Z,12.60
2022-11-03T01:55:42.797Z,12.50
2022-11-03T01:58:42.026Z,12.50
2022-11-03T02:01:12.549Z,12.50
2022-11-03T02:03:44.658Z,12.50
2022-11-03T02:06:21.708Z,12.50
2022-11-03T02:09:03.710Z,12.50
2022-11-03T02:11:54.316Z,12.50
2022-11-03T02:14:23.253Z,12.60
2022-11-03T02:17:01.958Z,12.60
2022-11-03T02:19:55.797Z,12.80
2022-11-03T02:22:43.836Z,12.80
2022-11-03T02:25:53.145Z,12.80
2022-11-03T02:28:33.432Z,12.80
2022-11-03T02:33:57.524Z,12.80
2022-11-03T02:36:30.862Z,12.80
2022-11-03T02:39:19.452Z,12.70
2022-11-03T02:41:48.701Z,12.70
2022-11-03T02:44:19.667Z,12.70
2022-11-03T02:46:52.755Z,12.70
2022-11-03T02:49:19.788Z,12.70
2022-11-03T02:51:46.748Z,12.70
2022-11-03T02:54:19.993Z,12.70
2022-11-03T02:56:54.154Z,12.80
2022-11-03T02:59:27.889Z,12.70
2022-11-03T03:02:11.560Z,12.80
2022-11-03T03:04:59.315Z,12.80
2022-11-03T03:07:31.042Z,12.80
2022-11-03T03:10:16.029Z,12.80
2022-11-03T03:12:50.609Z,12.70
2022-11-03T03:15:18.971Z,12.80
2022-11-03T03:18:02.012Z,12.70
2022-11-03T03:20:34.598Z,12.70
2022-11-03T03:23:19.416Z,12.70
2022-11-03T03:25:53.360Z,12.70
2022-11-03T03:28:25.957Z,12.60
2022-11-03T03:30:57.304Z,12.60
2022-11-03T03:35:56.793Z,12.50
2022-11-03T03:38:28.733Z,12.50
2022-11-03T03:40:59.538Z,12.50
2022-11-03T03:43:29.795Z,12.40
2022-11-03T03:46:01.627Z,12.40
2022-11-03T03:48:28.688Z,12.40
2022-11-03T03:50:56.808Z,12.40
2022-11-03T03:53:29.627Z,12.40
2022-11-03T03:55:58.211Z,12.40
2022-11-03T03:58:25.394Z,12.40
2022-11-03T04:00:52.429Z,12.30
2022-11-03T04:03:24.843Z,12.30
2022-11-03T04:05:54.109Z,12.30
2022-11-03T04:08:21.120Z,12.20
2022-11-03T04:11:06.578Z,12.30
2022-11-03T04:13:52.513Z,12.20
2022-11-03T04:16:38.437Z,12.20
2022-11-03T04:19:24.033Z,12.20
2022-11-03T04:22:09.409Z,12.20
2022-11-03T04:24:36.416Z,12.20
2022-11-03T04:27:19.034Z,12.10
2022-11-03T04:29:46.138Z,12.10
2022-11-03T04:32:16.990Z,12.10
2022-11-03T04:34:46.933Z,12.10
2022-11-03T04:37:14.548Z,12.10
2022-11-03T04:39:42.196Z,12.10
2022-11-03T04:42:22.838Z,12.10
2022-11-03T04:44:50.508Z,12.10
2022-11-03T04:47:19.063Z,12.10
2022-11-03T04:49:48.383Z,12.10
2022-11-03T04:52:22.583Z,12.10
2022-11-03T04:54:52.488Z,12.10
2022-11-03T04:57:19.578Z,12.20
2022-11-03T04:59:51.268Z,12.20
2022-11-03T05:02:21.304Z,12.20
2022-11-03T05:04:48.718Z,12.10
2022-11-03T05:07:18.475Z,12.10
2022-11-03T05:09:45.473Z,12.10
2022-11-03T05:12:12.577Z,12.10
2022-11-03T05:14:39.734Z,12.00
2022-11-03T05:17:28.515Z,12.10
2022-11-03T05:20:03.870Z,12.00
2022-11-03T05:22:35.994Z,12.00
2022-11-03T05:25:34.319Z,12.00
2022-11-03T05:28:01.434Z,11.90
2022-11-03T05:30:28.479Z,11.80
2022-11-03T05:32:55.733Z,11.80
2022-11-03T05:35:23.795Z,11.70
2022-11-03T05:37:51.514Z,11.70
2022-11-03T05:40:24.579Z,11.70
2022-11-03T05:43:01.179Z,11.70
2022-11-03T05:45:35.570Z,11.70
2022-11-03T05:48:06.274Z,11.70
2022-11-03T05:50:36.696Z,11.70
2022-11-03T05:53:27.244Z,11.70
2022-11-03T05:55:59.468Z,11.70
2022-11-03T05:58:35.247Z,11.80
2022-11-03T06:01:19.388Z,11.60
2022-11-03T06:03:47.536Z,11.60
2022-11-03T06:06:31.987Z,11.60
2022-11-03T06:09:06.575Z,11.50
2022-11-03T06:11:36.960Z,11.60
2022-11-03T06:14:21.384Z,11.50
2022-11-03T06:16:54.915Z,11.50
2022-11-03T06:19:24.023Z,11.50
2022-11-03T06:21:53.755Z,11.50
2022-11-03T06:24:24.502Z,11.50
2022-11-03T06:26:53.008Z,11.50
2022-11-03T06:29:21.663Z,11.60
2022-11-03T06:31:51.371Z,11.60
2022-11-03T06:34:39.622Z,11.60
2022-11-03T06:37:25.427Z,11.60
2022-11-03T06:39:59.653Z,11.50
2022-11-03T06:42:31.973Z,11.50
2022-11-03T06:44:59.258Z,11.50
2022-11-03T06:47:28.623Z,11.50
2022-11-03T06:49:58.421Z,11.50
2022-11-03T06:52:35.394Z,11.50
2022-11-03T06:55:27.138Z,11.40
2022-11-03T06:57:58.761Z,11.50
2022-11-03T07:00:38.561Z,11.50
2022-11-03T07:03:08.469Z,11.60
2022-11-03T07:05:37.354Z,11.60
2022-11-03T07:08:21.133Z,11.60
2022-11-03T07:10:49.140Z,11.70
2022-11-03T07:13:24.983Z,11.70
2022-11-03T07:15:52.549Z,11.90
2022-11-03T07:18:21.998Z,11.90
2022-11-03T07:20:49.352Z,12.00
2022-11-03T07:23:22.267Z,12.10
2022-11-03T07:25:54.834Z,12.10
2022-11-03T07:28:32.037Z,12.20
2022-11-03T07:31:01.707Z,12.20
2022-11-03T07:33:31.517Z,12.30
2022-11-03T07:36:16.797Z,12.30
2022-11-03T07:38:46.394Z,12.30
2022-11-03T07:41:20.343Z,12.30
2022-11-03T07:43:54.944Z,12.30
2022-11-03T07:46:23.838Z,12.30
2022-11-03T07:48:57.314Z,12.40
2022-11-03T07:51:41.398Z,12.50
2022-11-03T07:54:18.824Z,12.60
2022-11-03T07:56:52.914Z,12.90
2022-11-03T08:01:56.508Z,13.00
2022-11-03T08:07:39.258Z,14.40
2022-11-03T08:10:10.372Z,14.50
2022-11-03T08:12:37.844Z,14.30
2022-11-03T08:15:15.434Z,14.30
2022-11-03T08:18:05.994Z,14.60
2022-11-03T08:20:36.010Z,14.70
2022-11-03T08:26:03.628Z,14.50
2022-11-03T08:28:33.544Z,14.60
2022-11-03T08:31:10.999Z,14.90
2022-11-03T08:34:01.038Z,15.10
2022-11-03T08:36:28.590Z,15.20
2022-11-03T08:38:59.299Z,15.20
2022-11-03T08:41:29.269Z,15.20
2022-11-03T08:43:58.983Z,15.30
2022-11-03T08:46:42.995Z,15.30
2022-11-03T08:49:19.016Z,15.20
2022-11-03T08:51:47.097Z,15.20
2022-11-03T08:54:15.290Z,15.00
2022-11-03T08:56:45.677Z,14.90
2022-11-03T08:59:21.574Z,14.80
2022-11-03T09:01:53.281Z,14.70
2022-11-03T09:04:31.038Z,14.50
2022-11-03T09:06:59.913Z,14.30
2022-11-03T09:12:21.461Z,14.30
2022-11-03T09:14:49.558Z,14.30
2022-11-03T09:17:17.818Z,14.30
2022-11-03T09:19:46.722Z,14.30
2022-11-03T09:22:16.154Z,14.50
2022-11-03T09:24:45.682Z,14.70
2022-11-03T09:27:14.144Z,14.80
2022-11-03T09:30:11.206Z,14.90
2022-11-03T09:32:40.720Z,15.10
2022-11-03T09:35:11.038Z,15.10
2022-11-03T09:37:39.228Z,15.10
2022-11-03T09:40:10.086Z,15.20
2022-11-03T09:42:39.457Z,15.40
2022-11-03T09:45:10.408Z,15.40
2022-11-03T09:47:52.974Z,15.50
2022-11-03T09:50:25.378Z,15.50
2022-11-03T09:52:59.116Z,15.40
2022-11-03T09:55:35.833Z,15.40
2022-11-03T09:58:15.029Z,15.40
2022-11-03T10:00:43.111Z,15.40
2022-11-03T10:03:23.270Z,15.40
2022-11-03T10:06:00.689Z,15.20
2022-11-03T10:08:34.560Z,15.40
2022-11-03T10:11:07.513Z,15.40
2022-11-03T10:13:48.602Z,15.60
2022-11-03T10:16:21.474Z,15.60
2022-11-03T10:18:56.338Z,15.60
2022-11-03T10:21:35.879Z,15.30
2022-11-03T10:24:14.893Z,15.40
2022-11-03T10:26:57.094Z,15.40
2022-11-03T10:29:27.603Z,15.30
2022-11-03T10:32:01.905Z,15.20
2022-11-03T10:34:52.919Z,15.10
2022-11-03T10:37:25.791Z,15.00
2022-11-03T10:39:54.907Z,14.80
2022-11-03T10:42:35.511Z,14.90
2022-11-03T10:45:12.607Z,15.10
2022-11-03T10:47:43.503Z,15.20
2022-11-03T10:50:27.472Z,15.30
2022-11-03T10:52:57.795Z,15.40
2022-11-03T10:55:29.647Z,15.60
2022-11-03T10:57:59.195Z,15.70
2022-11-03T11:00:28.352Z,15.80
2022-11-03T11:03:03.625Z,15.60
2022-11-03T11:08:24.906Z,15.70
2022-11-03T11:11:03.837Z,15.70
2022-11-03T11:13:32.442Z,15.80
2022-11-03T11:16:10.046Z,15.90
2022-11-03T11:18:49.410Z,15.90
2022-11-03T11:21:19.743Z,16.00
2022-11-03T11:23:49.878Z,16.10
2022-11-03T11:26:32.894Z,16.10
2022-11-03T11:29:16.076Z,15.90
2022-11-03T11:31:46.546Z,15.90
2022-11-03T11:34:41.347Z,15.70
2022-11-03T11:37:12.624Z,15.80
2022-11-03T11:39:44.404Z,15.80
2022-11-03T11:42:20.494Z,15.90
2022-11-03T11:45:04.525Z,15.70
2022-11-03T11:47:53.278Z,15.50
2022-11-03T11:50:25.866Z,15.80
2022-11-03T11:53:31.782Z,16.10
2022-11-03T11:56:05.621Z,15.90
2022-11-03T11:58:53.646Z,15.80
2022-11-03T12:01:35.212Z,15.70
2022-11-03T12:04:35.734Z,15.60
2022-11-03T12:07:03.427Z,15.90
2022-11-03T12:09:41.135Z,16.10
2022-11-03T12:12:11.066Z,16.30
2022-11-03T12:14:46.951Z,16.50
2022-11-03T12:17:17.240Z,16.60
2022-11-03T12:19:54.467Z,16.60
2022-11-03T12:22:50.740Z,16.70
2022-11-03T12:25:36.759Z,16.80
2022-11-03T12:28:06.805Z,16.80
2022-11-03T12:30:39.565Z,16.80
2022-11-03T12:33:11.675Z,16.70
2022-11-03T12:35:48.689Z,16.60
2022-11-03T12:38:18.562Z,16.70
2022-11-03T12:40:49.175Z,16.80
2022-11-03T12:43:20.172Z,16.80
2022-11-03T12:45:51.539Z,16.60
2022-11-03T12:48:28.478Z,16.50
2022-11-03T12:51:03.440Z,16.40
2022-11-03T12:53:34.018Z,16.30
2022-11-03T12:56:04.744Z,16.30
2022-11-03T12:58:34.119Z,16.40
2022-11-03T13:01:04.565Z,16.40
2022-11-03T13:03:32.835Z,16.20
2022-11-03T13:06:04.794Z,16.00
2022-11-03T13:08:41.199Z,15.90
2022-11-03T13:11:34.907Z,15.90
2022-11-03T13:14:08.448Z,15.60
2022-11-03T13:16:39.680Z,14.40
2022-11-03T13:19:11.657Z,13.60
2022-11-03T13:21:38.643Z,12.00
2022-11-03T13:24:08.554Z,10.60
2022-11-03T13:26:39.270Z,10.30
2022-11-03T13:29:15.332Z,11.20
2022-11-03T13:31:45.135Z,12.10
2022-11-03T13:34:14.756Z,13.00
2022-11-03T13:36:44.248Z,13.60
2022-11-03T13:39:16.418Z,13.90
2022-11-03T13:41:46.807Z,14.20
2022-11-03T13:44:21.744Z,14.40
2022-11-03T13:46:52.258Z,14.50
2022-11-03T13:49:59.332Z,14.50
2022-11-03T13:52:10.939Z,14.50
2022-11-03T14:00:27.279Z,14.20
2022-11-03T14:05:46.569Z,14.20
2022-11-03T14:08:15.859Z,14.30
2022-11-03T14:10:44.170Z,14.40
2022-11-03T14:13:20.594Z,14.40
2022-11-03T14:15:48.667Z,14.60
2022-11-03T14:18:25.754Z,14.60
2022-11-03T14:20:54.274Z,14.60
2022-11-03T14:23:22.313Z,14.70
2022-11-03T14:26:00.471Z,14.70
2022-11-03T14:28:42.139Z,14.70
2022-11-03T14:31:10.738Z,14.70
2022-11-03T14:33:48.159Z,14.70
2022-11-03T14:36:25.161Z,14.70
2022-11-03T14:38:54.648Z,14.60
2022-11-03T14:41:44.028Z,14.60
2022-11-03T14:44:14.150Z,14.60
2022-11-03T14:49:24.868Z,14.50
2022-11-03T14:51:55.839Z,14.50
2022-11-03T14:54:31.118Z,14.50
2022-11-03T14:56:59.983Z,14.30
2022-11-03T14:59:30.478Z,14.20
2022-11-03T15:02:01.161Z,14.20
2022-11-03T15:04:31.625Z,14.10
2022-11-03T15:06:59.467Z,14.00
2022-11-03T15:09:27.938Z,13.90
2022-11-03T15:12:06.124Z,13.90
2022-11-03T15:14:34.654Z,13.80
2022-11-03T15:17:04.834Z,13.80
2022-11-03T15:19:40.915Z,13.70
2022-11-03T15:22:10.868Z,13.70
2022-11-03T15:27:29.178Z,13.60
2022-11-03T15:29:58.070Z,13.60
2022-11-03T15:32:36.627Z,13.50
2022-11-03T15:35:06.784Z,13.50
2022-11-03T15:37:37.790Z,13.50
2022-11-03T15:40:13.281Z,13.40
2022-11-03T15:42:41.309Z,13.40
2022-11-03T15:45:17.195Z,13.40
2022-11-03T15:47:46.077Z,13.30
2022-11-03T15:50:17.182Z,13.30
2022-11-03T15:52:47.398Z,13.30
2022-11-03T15:55:17.744Z,13.20
2022-11-03T15:57:46.558Z,13.10
2022-11-03T16:00:16.904Z,13.10
2022-11-03T16:02:44.307Z,13.00
2022-11-03T16:05:11.469Z,13.00
2022-11-03T16:07:38.777Z,13.00
2022-11-03T16:10:16.429Z,13.00
2022-11-03T16:12:47.978Z,13.00
2022-11-03T16:15:17.534Z,12.90
2022-11-03T16:17:48.015Z,12.90
2022-11-03T16:20:18.934Z,13.00
2022-11-03T16:22:54.596Z,13.00
2022-11-03T16:25:21.830Z,13.00
2022-11-03T16:27:52.686Z,13.00
2022-11-03T16:30:22.775Z,13.00
2022-11-03T16:32:53.866Z,13.00
2022-11-03T16:35:22.836Z,13.00
2022-11-03T16:37:52.020Z,13.00
2022-11-03T16:40:20.476Z,13.00
2022-11-03T16:42:53.515Z,13.00
2022-11-03T16:45:27.860Z,13.00
2022-11-03T16:47:58.728Z,13.00
2022-11-03T16:50:28.495Z,13.00
2022-11-03T16:52:57.309Z,12.90
2022-11-03T16:55:25.889Z,12.90
2022-11-03T16:57:54.589Z,12.80
2022-11-03T17:00:28.265Z,12.70
2022-11-03T17:02:55.760Z,12.70
2022-11-03T17:05:25.360Z,12.60
2022-11-03T17:07:54.412Z,12.70
2022-11-03T17:10:24.303Z,12.70
2022-11-03T17:12:52.790Z,12.70
2022-11-03T17:15:21.779Z,12.60
2022-11-03T17:17:50.460Z,12.60
2022-11-03T17:20:27.061Z,12.60
2022-11-03T17:22:58.089Z,12.60
2022-11-03T17:25:26.738Z,12.40
2022-11-03T17:28:01.789Z,12.40
2022-11-03T17:30:38.475Z,12.40
2022-11-03T17:33:18.730Z,12.30
2022-11-03T17:35:48.104Z,12.30
2022-11-03T17:38:23.874Z,12.20
2022-11-03T17:40:53.504Z,12.20
2022-11-03T17:43:31.555Z,12.20
2022-11-03T17:45:58.559Z,12.20
2022-11-03T17:48:37.198Z,12.30
2022-11-03T17:51:09.774Z,12.30
2022-11-03T17:53:45.292Z,12.30
2022-11-03T17:56:33.706Z,12.30
2022-11-03T17:59:10.176Z,12.30
2022-11-03T18:01:38.797Z,12.20
2022-11-03T18:06:44.037Z,12.10
2022-11-03T18:09:12.435Z,12.10
2022-11-03T18:12:02.154Z,12.00
2022-11-03T18:14:33.133Z,12.00
2022-11-03T18:17:02.158Z,12.00
2022-11-03T18:19:33.138Z,12.00
2022-11-03T18:22:06.692Z,12.10
2022-11-03T18:24:33.633Z,12.10
2022-11-03T18:27:02.957Z,12.10
2022-11-03T18:29:32.938Z,12.10
2022-11-03T18:32:06.903Z,12.10
2022-11-03T18:34:37.408Z,12.10
2022-11-03T18:37:07.704Z,12.10
2022-11-03T18:39:38.012Z,12.10
2022-11-03T18:42:16.948Z,12.10
2022-11-03T18:44:45.837Z,12.10
2022-11-03T18:47:16.395Z,12.10
2022-11-03T18:49:46.184Z,12.10
2022-11-03T18:52:19.147Z,12.00
2022-11-03T18:54:56.063Z,12.00
2022-11-03T18:57:27.581Z,12.00
2022-11-03T19:03:38.795Z,12.00
2022-11-03T19:06:10.342Z,12.00
2022-11-03T19:08:39.573Z,12.00
2022-11-03T19:11:10.448Z,12.00
2022-11-03T19:13:44.657Z,12.00
2022-11-03T19:16:22.408Z,12.00
2022-11-03T19:18:52.963Z,12.00
2022-11-03T19:21:23.846Z,12.00
2022-11-03T19:23:58.515Z,12.00
2022-11-03T19:26:37.653Z,12.00
2022-11-03T19:29:15.508Z,12.00
2022-11-03T19:31:47.573Z,12.10
2022-11-03T19:34:33.228Z,12.00
2022-11-03T19:37:22.558Z,12.00
2022-11-03T19:39:52.952Z,12.00
2022-11-03T19:42:30.430Z,11.90
2022-11-03T19:45:02.158Z,11.80
2022-11-03T19:47:44.425Z,11.80
2022-11-03T19:50:29.179Z,11.70
2022-11-03T19:53:07.532Z,11.60
2022-11-03T19:55:53.488Z,11.60
2022-11-03T19:58:29.274Z,11.50
2022-11-03T20:01:05.562Z,11.50
2022-11-03T20:03:39.136Z,10.90
2022-11-03T20:06:09.513Z,9.20
2022-11-03T20:08:41.138Z,8.10
2022-11-03T20:11:11.594Z,7.60
2022-11-03T20:13:46.891Z,7.70
2022-11-03T20:16:17.898Z,7.60
2022-11-03T20:18:51.482Z,7.30
2022-11-03T20:21:33.107Z,6.80
2022-11-03T20:24:05.403Z,6.50
2022-11-03T20:26:35.384Z,6.80
2022-11-03T20:29:04.252Z,6.80
2022-11-03T20:31:33.636Z,6.40
2022-11-03T20:34:07.080Z,6.30
2022-11-03T20:36:35.755Z,6.30
2022-11-03T20:39:11.973Z,7.30
2022-11-03T20:41:46.539Z,8.20
2022-11-03T20:44:24.035Z,9.10
2022-11-03T20:46:54.635Z,9.50
2022-11-03T20:49:30.194Z,9.80
2022-11-03T20:51:58.469Z,10.10
2022-11-03T20:54:37.770Z,10.20
2022-11-03T20:57:05.675Z,10.30
2022-11-03T20:59:34.695Z,10.40
2022-11-03T21:02:17.201Z,10.40
2022-11-03T21:04:45.758Z,10.50
2022-11-03T21:07:15.683Z,10.60
2022-11-03T21:09:45.365Z,10.70
2022-11-03T21:12:15.790Z,10.80
2022-11-03T21:15:02.263Z,10.90
2022-11-03T21:17:48.613Z,10.90
2022-11-03T21:20:19.713Z,11.10
2022-11-03T21:22:53.710Z,11.20
2022-11-03T21:25:32.069Z,11.20
2022-11-03T21:28:05.345Z,11.20
2022-11-03T21:30:34.714Z,11.30
2022-11-03T21:33:02.754Z,11.20
2022-11-03T21:35:33.534Z,11.20
2022-11-03T21:38:04.318Z,11.20
2022-11-03T21:40:33.773Z,11.20
2022-11-03T21:43:21.231Z,11.10
2022-11-03T21:45:51.856Z,11.10
2022-11-03T21:48:39.008Z,11.20
2022-11-03T21:51:07.744Z,11.20
2022-11-03T21:53:37.206Z,11.10
2022-11-03T21:56:05.755Z,11.10
2022-11-03T21:58:33.914Z,11.00
2022-11-03T22:01:06.108Z,11.10
2022-11-03T22:03:36.549Z,11.10
2022-11-03T22:06:13.481Z,11.10
2022-11-03T22:08:44.714Z,11.10
2022-11-03T22:11:23.836Z,11.10
2022-11-03T22:14:07.633Z,11.00
2022-11-03T22:16:42.740Z,11.00
2022-11-03T22:19:41.401Z,11.00
2022-11-03T22:22:34.055Z,11.10
2022-11-03T22:25:21.595Z,11.00
2022-11-03T22:27:53.098Z,10.90
2022-11-03T22:30:43.688Z,11.00
2022-11-03T22:33:13.037Z,10.90
2022-11-03T22:36:09.739Z,11.00
2022-11-03T22:39:00.815Z,11.00
2022-11-03T22:41:49.504Z,11.10
2022-11-03T22:44:38.539Z,11.00
2022-11-03T22:47:11.335Z,11.00
2022-11-03T22:49:43.528Z,11.10
2022-11-03T22:52:12.211Z,11.10
2022-11-03T22:54:43.399Z,11.10
2022-11-03T22:57:16.635Z,11.20
2022-11-03T22:59:46.990Z,11.20
2022-11-03T23:02:16.603Z,11.20
2022-11-03T23:04:53.358Z,11.20
2022-11-03T23:07:29.946Z,11.20
2022-11-03T23:10:04.821Z,11.20
2022-11-03T23:12:42.702Z,11.10
2022-11-03T23:15:35.642Z,11.10
2022-11-03T23:18:25.328Z,11.10
2022-11-03T23:21:08.884Z,11.00
2022-11-03T23:24:02.425Z,11.00
2022-11-03T23:26:34.596Z,10.90
2022-11-03T23:29:04.080Z,10.90
2022-11-03T23:31:33.357Z,11.00
2022-11-03T23:34:06.378Z,11.00
2022-11-03T23:36:36.762Z,11.00
2022-11-03T23:39:05.249Z,11.00
2022-11-03T23:41:32.514Z,10.90
2022-11-03T23:44:01.435Z,10.90
2022-11-03T23:46:50.712Z,10.80
2022-11-03T23:49:18.659Z,10.80
2022-11-03T23:51:48.446Z,10.80
2022-11-03T23:54:25.807Z,10.80
2022-11-03T23:57:19.919Z,10.80
2022-11-03T23:59:52.881Z,10.80
